Time;durP1;ratioP1;P1;durP2;ratioP2;P2;SDS_P1;SDS_P2;PMS_P1;PMS_P2;Temp;Humidity;BMP_temperature;BMP_pressure;BME280_temperature;BME280_humidity;BME280_pressure;Samples;Min_cycle;Max_cycle;Signal;HPM_P1;HPM_P2
2023/06/18 16:48:35;;;;;;;5.6;3.5;;;;;;;32.58;30.86;;;;;
2023/06/18 16:59:33;;;;;;;5.6;3.5;;;;;;;31.57;31.5;;;;;
2023/06/18 17:10:33;;;;;;;6.3;3.6;;;;;;;28.29;35.31;;;;;
2023/06/18 17:20:33;;;;;;;6.3;3.6;;;;;;;26.3;39.16;;;;;
2023/06/18 17:31:33;;;;;;;6.4;3.6;;;;;;;26.86;38.32;;;;;
2023/06/18 17:41:33;;;;;;;6.4;3.6;;;;;;;28.51;35.49;;;;;
2023/06/18 17:51:33;;;;;;;6.4;3.6;;;;;;;28.91;34.91;;;;;
2023/06/18 18:02:33;;;;;;;6.8;3.7;;;;;;;28.56;34.72;;;;;
2023/06/18 18:12:33;;;;;;;6.8;3.7;;;;;;;26.3;39.09;;;;;
2023/06/18 18:23:33;;;;;;;6.8;3.7;;;;;;;24.25;44.56;;;;;
2023/06/18 18:34:33;;;;;;;14.8;4.7;;;;;;;22.68;47.12;;;;;
2023/06/18 18:44:33;;;;;;;14.8;4.7;;;;;;;21.53;49.44;;;;;
2023/06/18 18:55:34;;;;;;;14.8;4.7;;;;;;;20.45;53.79;;;;;
2023/06/18 19:06:33;;;;;;;7.1;4.1;;;;;;;19.52;58.19;;;;;
2023/06/18 19:16:33;;;;;;;7.1;4.1;;;;;;;18.8;58.95;;;;;
2023/06/18 19:27:33;;;;;;;7.1;4.1;;;;;;;18.08;63.38;;;;;
2023/06/18 19:37:33;;;;;;;9.4;4.9;;;;;;;17.5;64.66;;;;;
2023/06/18 19:48:35;;;;;;;9.4;4.9;;;;;;;17.05;67.31;;;;;
2023/06/18 19:58:33;;;;;;;9.4;4.9;;;;;;;16.7;68.66;;;;;
2023/06/18 20:08:33;;;;;;;11.8;7.1;;;;;;;16.43;69.86;;;;;
2023/06/18 20:18:33;;;;;;;11.8;7.1;;;;;;;16.02;69.54;;;;;
2023/06/18 20:29:33;;;;;;;11.8;7.1;;;;;;;15.66;70.24;;;;;
2023/06/18 20:39:33;;;;;;;8.5;6.7;;;;;;;15.47;72.63;;;;;
2023/06/18 20:49:33;;;;;;;8.5;6.7;;;;;;;15.37;73.45;;;;;
2023/06/18 20:59:33;;;;;;;8.5;6.7;;;;;;;15.12;73.06;;;;;
2023/06/18 21:09:33;;;;;;;9.9;7.5;;;;;;;14.92;74.01;;;;;
2023/06/18 21:19:33;;;;;;;9.9;7.5;;;;;;;15.09;75.41;;;;;
2023/06/18 21:29:33;;;;;;;9.9;7.5;;;;;;;15.33;74.2;;;;;
2023/06/18 21:40:33;;;;;;;8.5;6.8;;;;;;;15;74.13;;;;;
2023/06/18 21:50:33;;;;;;;8.5;6.8;;;;;;;14.71;74.18;;;;;
2023/06/18 22:00:33;;;;;;;9;7.1;;;;;;;14.48;75.42;;;;;
2023/06/18 22:10:33;;;;;;;9;7.1;;;;;;;14.27;76.56;;;;;
2023/06/18 22:20:33;;;;;;;9;7.1;;;;;;;14.06;76.49;;;;;
2023/06/18 22:44:53;;;;;;;9.5;6.6;;;;;;;13.5;78.16;;;;;
2023/06/18 22:54:53;;;;;;;9.5;6.6;;;;;;;13.38;80.33;;;;;
2023/06/18 23:05:53;;;;;;;10.8;7;;;;;;;13.32;80.83;;;;;
2023/06/18 23:15:55;;;;;;;10.8;7;;;;;;;13.24;81.2;;;;;
2023/06/18 23:26:53;;;;;;;10.8;7;;;;;;;13.17;83.9;;;;;
2023/06/18 23:36:57;;;;;;;12.1;9;;;;;;;13.21;83.28;;;;;
2023/06/18 23:47:53;;;;;;;12.1;9;;;;;;;13.15;82.41;;;;;
2023/06/18 23:57:53;;;;;;;12.1;9;;;;;;;13.1;81.35;;;;;
